Time;durP1;ratioP1;P1;durP2;ratioP2;P2;SDS_P1;SDS_P2;PMS_P1;PMS_P2;Temp;Humidity;BMP_temperature;BMP_pressure;BME280_temperature;BME280_humidity;BME280_pressure;Samples;Min_cycle;Max_cycle;Signal;HPM_P1;HPM_P2
2023/05/07 00:01:28;;;;;;;;;2.00;1.00;;;;;18.01;100.00;114032.69;4978381;28;45387;-91
2023/05/07 00:03:53;;;;;;;;;1.00;1.00;;;;;17.71;100.00;112629.63;4987297;28;45424;-91
2023/05/07 00:06:19;;;;;;;;;1.00;1.00;;;;;17.98;100.00;110770.47;4996215;28;46117;-89
2023/05/07 00:08:44;;;;;;;;;1.00;1.00;;;;;17.84;100.00;109011.78;4997228;28;45454;-89
2023/05/07 00:11:10;;;;;;;;;1.67;1.67;;;;;18.03;100.00;107487.09;4980502;28;45428;-88
2023/05/07 00:13:35;;;;;;;;;1.00;1.00;;;;;17.91;100.00;105977.94;4982150;28;45491;-89
2023/05/07 00:16:02;;;;;;;;;1.00;1.00;;;;;17.81;100.00;104230.66;4979141;28;49549;-88
2023/05/07 00:18:27;;;;;;;;;1.00;1.00;;;;;17.76;100.00;103093.13;4995539;28;45514;-89
2023/05/07 00:20:53;;;;;;;;;1.00;1.00;;;;;17.59;100.00;101719.50;4977581;28;45488;-88
2023/05/07 00:23:18;;;;;;;;;1.33;1.33;;;;;17.63;100.00;100426.28;4978089;28;45809;-88
2023/05/07 00:25:43;;;;;;;;;1.67;1.33;;;;;17.94;100.00;99009.34;4983828;28;54671;-89
2023/05/07 00:28:09;;;;;;;;;2.00;2.00;;;;;17.81;100.00;97562.75;4996005;28;45652;-89
2023/05/07 00:30:34;;;;;;;;;1.33;1.33;;;;;17.72;100.00;95585.34;4979719;28;45480;-88
2023/05/07 00:33:00;;;;;;;;;1.00;1.00;;;;;17.62;100.00;95722.41;4974510;28;45493;-89
2023/05/07 00:35:25;;;;;;;;;1.00;1.00;;;;;17.78;100.00;93900.22;4989554;28;47899;-88
2023/05/07 00:37:50;;;;;;;;;3.00;2.00;;;;;17.28;100.00;92156.06;4975786;28;45459;-88
2023/05/07 00:40:16;;;;;;;;;1.00;1.00;;;;;17.84;100.00;91049.56;4976666;28;45966;-90
2023/05/07 00:42:41;;;;;;;;;2.00;2.00;;;;;17.19;100.00;91162.84;4979103;28;45559;-88
2023/05/07 00:45:07;;;;;;;;;2.00;2.00;;;;;17.18;100.00;89941.50;4966177;28;47646;-95
2023/05/07 00:47:33;;;;;;;;;2.00;2.00;;;;;17.43;100.00;89057.63;4959239;28;45562;-87
2023/05/07 00:49:58;;;;;;;;;2.00;2.00;;;;;17.07;100.00;87866.59;4966925;28;45464;-88
2023/05/07 00:52:25;;;;;;;;;3.33;1.67;;;;;17.76;100.00;87133.81;4956694;28;46014;-88
2023/05/07 00:54:51;;;;;;;;;1.33;1.33;;;;;17.49;100.00;86129.00;4974928;28;46134;-87
2023/05/07 00:57:17;;;;;;;;;2.00;2.00;;;;;17.49;100.00;84971.16;4978880;28;45713;-89
2023/05/07 00:59:42;;;;;;;;;4.00;3.00;;;;;17.50;100.00;85792.16;4975719;28;45329;-87
2023/05/07 05:02:26;;;;;;;;;0.33;0.33;;;;;16.69;100.00;54279.41;5072937;22;45653;-85
2023/05/07 05:04:51;;;;;;;;;0.33;0.33;;;;;16.94;100.00;55008.00;5028953;28;45503;-86
2023/05/07 05:07:16;;;;;;;;;0.67;0.00;;;;;17.09;100.00;54676.28;5002404;28;45485;-86
2023/05/07 05:09:42;;;;;;;;;0.33;0.33;;;;;16.94;100.00;54251.59;5015704;28;47093;-86
2023/05/07 05:12:07;;;;;;;;;1.00;1.00;;;;;16.85;100.00;54172.19;5024647;28;45460;-86
2023/05/07 05:14:33;;;;;;;;;1.00;1.00;;;;;17.06;100.00;53661.91;5018491;28;45386;-86
2023/05/07 05:16:58;;;;;;;;;1.00;1.00;;;;;16.59;100.00;53525.69;5028200;28;45627;-86
2023/05/07 05:19:23;;;;;;;;;1.00;1.00;;;;;17.09;100.00;53629.63;5031558;28;45559;-86
2023/05/07 05:21:49;;;;;;;;;1.00;1.00;;;;;17.52;100.00;53477.25;5031764;28;45412;-86
2023/05/07 05:24:15;;;;;;;;;4.00;2.00;;;;;16.86;100.00;53967.78;5027831;28;45720;-85
2023/05/07 05:26:40;;;;;;;;;3.00;2.00;;;;;17.02;100.00;53407.53;5023725;28;45647;-85
2023/05/07 05:29:06;;;;;;;;;2.67;2.67;;;;;17.28;100.00;53489.91;5028112;28;45811;-85
2023/05/07 05:31:31;;;;;;;;;3.00;3.00;;;;;17.49;100.00;53628.91;5032829;28;45565;-86
2023/05/07 05:33:56;;;;;;;;;3.00;2.00;;;;;17.34;100.00;53801.25;5031770;28;45830;-86
2023/05/07 05:36:22;;;;;;;;;1.00;1.00;;;;;17.22;100.00;53764.28;5014403;28;45360;-86
2023/05/07 05:38:47;;;;;;;;;1.00;1.00;;;;;17.14;100.00;53681.75;5029057;28;48447;-86
2023/05/07 05:41:12;;;;;;;;;2.00;2.00;;;;;17.58;100.00;53383.81;5030710;28;45495;-86
2023/05/07 05:43:38;;;;;;;;;3.33;2.67;;;;;17.59;100.00;53773.66;5013346;28;45925;-86
2023/05/07 05:46:04;;;;;;;;;2.00;1.00;;;;;17.59;100.00;53435.38;5025766;28;45359;-86
2023/05/07 05:48:30;;;;;;;;;1.67;1.00;;;;;17.36;100.00;53494.72;5015439;28;45422;-86
2023/05/07 05:50:55;;;;;;;;;2.00;1.00;;;;;17.32;100.00;53650.25;5019138;28;46097;-86
2023/05/07 05:53:20;;;;;;;;;2.00;1.00;;;;;16.79;100.00;53591.84;5030893;28;45476;-87
2023/05/07 05:55:46;;;;;;;;;1.33;1.33;;;;;16.91;100.00;53607.94;5021704;28;45551;-87
2023/05/07 05:58:11;;;;;;;;;2.00;0.00;;;;;16.77;100.00;53949.09;5015218;28;46043;-87
2023/05/07 06:00:37;;;;;;;;;1.67;1.67;;;;;17.20;100.00;54092.53;5022892;28;45478;-87
2023/05/07 06:03:02;;;;;;;;;1.33;1.33;;;;;17.01;100.00;53646.56;5031927;28;45798;-86
2023/05/07 06:05:28;;;;;;;;;3.00;3.00;;;;;16.94;100.00;54312.81;5030591;28;45609;-86
2023/05/07 06:07:53;;;;;;;;;1.00;1.00;;;;;17.23;100.00;54166.78;5025736;28;45850;-85
2023/05/07 06:10:18;;;;;;;;;1.33;1.33;;;;;17.63;100.00;53654.84;5006534;28;45390;-84
2023/05/07 06:12:44;;;;;;;;;2.67;2.67;;;;;17.08;100.00;53796.84;5031848;28;45804;-85
2023/05/07 06:15:10;;;;;;;;;0.00;0.00;;;;;17.13;100.00;53957.66;5009194;28;45612;-85
2023/05/07 06:17:35;;;;;;;;;0.25;0.25;;;;;17.63;100.00;53530.13;5014621;28;47415;-85
2023/05/07 06:20:00;;;;;;;;;2.00;2.00;;;;;17.09;100.00;53999.63;5027978;28;45472;-85
2023/05/07 06:22:26;;;;;;;;;0.00;0.00;;;;;17.22;100.00;53518.91;5022396;28;45351;-86
2023/05/07 06:24:51;;;;;;;;;0.25;0.00;;;;;17.18;100.00;53856.34;5029048;28;45477;-86
2023/05/07 06:27:17;;;;;;;;;0.00;0.00;;;;;17.56;100.00;53981.25;5032492;28;45829;-86
2023/05/07 06:29:42;;;;;;;;;0.00;0.00;;;;;16.94;100.00;53751.31;5016359;28;45750;-87
2023/05/07 06:32:12;;;;;;;;;0.00;0.00;;;;;16.97;100.00;53698.22;5014704;28;45834;-87
2023/05/07 06:34:39;;;;;;;;;0.00;0.00;;;;;17.63;100.00;54384.84;5026722;28;45446;-87
2023/05/07 06:37:05;;;;;;;;;0.00;0.00;;;;;17.59;100.00;54548.91;5025704;28;46665;-86
2023/05/07 06:39:31;;;;;;;;;0.00;0.00;;;;;17.19;100.00;54684.88;5030925;28;45525;-86
2023/05/07 06:41:56;;;;;;;;;0.00;0.00;;;;;17.41;100.00;54402.19;5017345;28;45398;-87
2023/05/07 06:44:21;;;;;;;;;0.00;0.00;;;;;17.74;100.00;54691.09;5032617;28;45505;-86
2023/05/07 06:46:47;;;;;;;;;0.25;0.00;;;;;17.31;100.00;54680.34;5264738;22;45426;-87
2023/05/07 06:49:13;;;;;;;;;0.00;0.00;;;;;17.71;100.00;54808.16;4996298;28;45484;-87
2023/05/07 06:51:39;;;;;;;;;1.00;0.00;;;;;17.18;100.00;55091.78;5005964;28;45560;-87
2023/05/07 06:54:06;;;;;;;;;0.00;0.00;;;;;17.76;100.00;55425.50;5241911;22;45888;-87
2023/05/07 06:56:32;;;;;;;;;0.00;0.00;;;;;17.71;100.00;55624.22;4996674;28;47595;-90
2023/05/07 06:58:59;;;;;;;;;0.00;0.00;;;;;17.65;100.00;55895.13;5231898;22;45506;-86
2023/05/07 07:01:28;;;;;;;;;0.00;0.00;;;;;17.80;100.00;56093.22;4976317;28;45526;-86
2023/05/07 07:06:21;;;;;;;;;0.00;0.00;;;;;17.69;100.00;56477.50;4975625;28;45947;-86
2023/05/07 07:08:46;;;;;;;;;0.00;0.00;;;;;17.72;100.00;56440.47;4977999;28;45499;-87
2023/05/07 07:13:50;;;;;;;;;0.00;0.00;;;;;17.79;100.00;56513.53;4992772;22;45596;-87
2023/05/07 07:16:16;;;;;;;;;0.00;0.00;;;;;17.20;100.00;57027.56;4994941;28;46147;-87
2023/05/07 07:18:41;;;;;;;;;0.00;0.00;;;;;17.40;100.00;56764.44;4979322;28;45399;-87
2023/05/07 07:21:06;;;;;;;;;0.00;0.00;;;;;17.75;100.00;56854.06;5212432;22;45583;-89
2023/05/07 07:23:32;;;;;;;;;0.00;0.00;;;;;17.66;100.00;57741.59;5015212;28;47228;-91
2023/05/07 07:25:58;;;;;;;;;0.00;0.00;;;;;17.86;100.00;59623.69;5008632;28;47573;-90
2023/05/07 07:28:23;;;;;;;;;0.00;0.00;;;;;17.59;100.00;60129.78;4992549;22;45398;-94
2023/05/07 07:30:49;;;;;;;;;0.00;0.00;;;;;16.97;100.00;60503.25;5000001;28;45900;-94
2023/05/07 07:33:15;;;;;;;;;0.00;0.00;;;;;17.40;100.00;60811.50;4990718;28;45409;-93
2023/05/07 07:35:40;;;;;;;;;0.00;0.00;;;;;17.58;100.00;61756.59;5002158;28;46098;-93
2023/05/07 07:38:05;;;;;;;;;0.00;0.00;;;;;17.53;100.00;60686.47;5009819;28;45471;-93
2023/05/07 07:40:34;;;;;;;;;0.00;0.00;;;;;17.50;100.00;63114.69;5001777;28;45659;-94
2023/05/07 07:43:01;;;;;;;;;0.00;0.00;;;;;17.03;100.00;63654.53;4989282;28;45619;-93
2023/05/07 07:45:26;;;;;;;;;0.00;0.00;;;;;17.41;100.00;63406.47;4997889;28;46711;-85
2023/05/07 07:47:52;;;;;;;;;0.00;0.00;;;;;17.66;100.00;64502.34;4988444;28;45758;-84
2023/05/07 07:50:17;;;;;;;;;1.00;0.00;;;;;17.57;100.00;65498.81;4995178;28;45549;-86
2023/05/07 07:52:43;;;;;;;;;0.00;0.00;;;;;17.65;100.00;64835.16;4991255;28;45628;-85
2023/05/07 07:55:08;;;;;;;;;1.00;1.00;;;;;17.96;100.00;65152.19;4994563;28;47335;-85
2023/05/07 07:57:34;;;;;;;;;1.25;0.25;;;;;17.97;100.00;65345.78;4993619;28;45463;-86
2023/05/07 07:59:59;;;;;;;;;0.00;0.00;;;;;18.02;100.00;64677.78;4984462;28;45418;-86
2023/05/07 08:02:25;;;;;;;;;0.00;0.00;;;;;17.70;100.00;64933.72;4995966;28;45444;-86
2023/05/07 08:04:50;;;;;;;;;0.00;0.00;;;;;18.13;100.00;64839.28;4990948;28;46681;-85
2023/05/07 08:07:18;;;;;;;;;0.50;0.50;;;;;17.73;100.00;64832.91;4995359;28;45770;-85
2023/05/07 08:09:43;;;;;;;;;0.00;0.00;;;;;17.84;100.00;64657.63;4968561;28;45518;-86
2023/05/07 08:12:09;;;;;;;;;0.00;0.00;;;;;17.80;100.00;64784.63;4996757;28;45453;-85
2023/05/07 08:14:36;;;;;;;;;0.25;0.25;;;;;18.07;100.00;65233.53;4995346;28;45633;-86
2023/05/07 08:17:01;;;;;;;;;0.00;0.00;;;;;18.01;100.00;65526.19;4994346;28;46919;-85
2023/05/07 08:19:26;;;;;;;;;0.00;0.00;;;;;17.95;100.00;65648.28;4994519;28;45451;-85
2023/05/07 08:21:52;;;;;;;;;1.00;1.00;;;;;18.25;100.00;65307.34;4995420;28;45387;-86
2023/05/07 08:24:18;;;;;;;;;1.25;0.25;;;;;18.16;100.00;64951.69;4995248;28;46521;-85
2023/05/07 08:26:44;;;;;;;;;0.00;0.00;;;;;18.33;100.00;64848.34;4995039;28;45466;-84
2023/05/07 08:29:11;;;;;;;;;0.75;0.75;;;;;18.40;100.00;65181.41;4987355;28;45535;-85
2023/05/07 08:31:36;;;;;;;;;1.00;1.00;;;;;18.46;100.00;65747.31;4982569;28;45916;-85
2023/05/07 08:34:03;;;;;;;;;0.00;0.00;;;;;18.33;100.00;65824.06;4993834;28;46127;-86
2023/05/07 08:36:28;;;;;;;;;0.00;0.00;;;;;18.44;100.00;65865.44;4993214;28;45502;-88
2023/05/07 08:38:54;;;;;;;;;0.50;0.50;;;;;18.42;100.00;66237.75;4994704;28;46674;-87
2023/05/07 08:41:20;;;;;;;;;1.00;1.00;;;;;18.60;100.00;66771.72;4993383;28;45684;-86
2023/05/07 08:43:51;;;;;;;;;1.00;1.00;;;;;18.60;100.00;68448.34;4994125;28;45474;-86
2023/05/07 08:46:19;;;;;;;;;0.00;0.00;;;;;18.54;100.00;68280.59;4993936;28;45896;-86
2023/05/07 08:48:45;;;;;;;;;0.00;0.00;;;;;18.59;100.00;68008.03;4992145;28;45524;-87
2023/05/07 08:51:16;;;;;;;;;0.75;0.00;;;;;18.59;100.00;67624.53;4984482;28;45563;-87
2023/05/07 08:53:42;;;;;;;;;2.00;1.00;;;;;18.41;100.00;67612.16;4995202;28;45638;-87
2023/05/07 08:56:11;;;;;;;;;2.00;2.00;;;;;18.59;100.00;67555.53;4993073;28;45828;-86
2023/05/07 08:58:37;;;;;;;;;1.00;1.00;;;;;18.60;100.00;67631.06;4993109;28;45828;-87
2023/05/07 09:01:10;;;;;;;;;1.00;1.00;;;;;18.58;100.00;67735.84;4992220;28;45923;-87
2023/05/07 09:03:37;;;;;;;;;1.00;1.00;;;;;18.35;100.00;67440.38;4982410;28;46699;-87
2023/05/07 09:06:03;;;;;;;;;1.25;1.25;;;;;18.31;100.00;68128.28;4996199;28;45734;-87
2023/05/07 09:08:29;;;;;;;;;1.00;1.00;;;;;18.30;100.00;67709.59;4978529;28;45560;-87
2023/05/07 09:10:54;;;;;;;;;0.75;0.75;;;;;18.44;100.00;68266.13;4993743;28;45508;-90
2023/05/07 09:13:20;;;;;;;;;1.25;1.25;;;;;18.32;100.00;68213.03;4999540;28;45609;-88
2023/05/07 09:15:45;;;;;;;;;1.00;1.00;;;;;18.23;100.00;68849.53;4998731;28;45444;-88
2023/05/07 09:18:12;;;;;;;;;2.00;1.00;;;;;18.48;100.00;68688.53;4977476;28;45494;-87
2023/05/07 09:20:39;;;;;;;;;2.00;2.00;;;;;17.93;100.00;68235.16;4994643;28;45710;-88
2023/05/07 09:23:11;;;;;;;;;1.00;1.00;;;;;18.25;100.00;68657.09;4990978;28;47663;-89
2023/05/07 09:25:37;;;;;;;;;1.00;1.00;;;;;18.13;100.00;68279.53;4983942;28;45531;-91
2023/05/07 09:28:25;;;;;;;;;1.00;1.00;;;;;18.07;100.00;68178.22;4995599;28;45365;-93
2023/05/07 09:34:36;;;;;;;;;1.75;1.75;;;;;18.62;100.00;68439.44;5117839;22;45471;-88
2023/05/07 09:37:03;;;;;;;;;1.50;1.50;;;;;18.61;100.00;68695.91;5009613;28;45744;-86
2023/05/07 09:39:45;;;;;;;;;3.50;2.00;;;;;18.61;100.00;68703.94;5011003;28;45584;-87
2023/05/07 09:42:12;;;;;;;;;2.75;2.00;;;;;18.61;100.00;68834.59;5008783;28;45693;-86
2023/05/07 09:44:38;;;;;;;;;3.00;2.00;;;;;18.45;100.00;69164.28;5009239;28;45828;-85
2023/05/07 09:47:07;;;;;;;;;2.00;2.00;;;;;18.66;100.00;69202.75;5007376;28;46435;-83
2023/05/07 09:49:42;;;;;;;;;2.00;1.50;;;;;18.70;100.00;69997.28;5013972;28;45531;-87
2023/05/07 09:52:10;;;;;;;;;1.50;1.50;;;;;18.44;100.00;70417.09;5011168;28;46943;-85
2023/05/07 09:54:39;;;;;;;;;2.00;2.00;;;;;18.69;100.00;69714.75;4988044;28;47130;-85
2023/05/07 09:57:06;;;;;;;;;3.50;2.00;;;;;18.09;100.00;69321.16;5009958;28;45445;-84
2023/05/07 09:59:33;;;;;;;;;1.25;1.25;;;;;18.97;100.00;69341.06;5010869;28;45796;-85
2023/05/07 10:02:00;;;;;;;;;1.75;1.75;;;;;18.54;100.00;69987.22;5013811;28;47639;-85
2023/05/07 10:04:27;;;;;;;;;2.00;2.00;;;;;18.17;100.00;70976.69;5013276;28;45546;-88
2023/05/07 10:06:55;;;;;;;;;1.75;1.75;;;;;18.76;100.00;71264.19;5012779;28;45525;-83
2023/05/07 10:09:21;;;;;;;;;2.00;2.00;;;;;18.23;100.00;71693.16;5013365;28;45585;-84
2023/05/07 10:11:49;;;;;;;;;2.25;2.25;;;;;18.95;100.00;71966.00;5013779;28;45710;-83
2023/05/07 10:14:17;;;;;;;;;3.25;3.00;;;;;18.81;100.00;72650.59;5010187;28;45734;-82
2023/05/07 10:16:43;;;;;;;;;2.00;2.00;;;;;18.86;100.00;72724.50;5013065;28;45728;-82
2023/05/07 10:19:12;;;;;;;;;2.25;2.25;;;;;18.51;100.00;72277.16;5010951;28;45499;-83
2023/05/07 10:21:38;;;;;;;;;2.00;2.00;;;;;19.00;100.00;72025.22;5011162;28;45460;-83
2023/05/07 10:24:19;;;;;;;;;5.00;4.00;;;;;19.07;100.00;71963.56;5001922;28;47108;-83
2023/05/07 10:26:49;;;;;;;;;3.00;3.00;;;;;18.60;100.00;70429.97;5010266;28;45703;-83
2023/05/07 10:29:27;;;;;;;;;3.00;3.00;;;;;19.06;100.00;72008.53;5001965;28;45504;-84
2023/05/07 10:32:02;;;;;;;;;3.00;3.00;;;;;18.50;100.00;71450.53;5024135;28;46217;-84
2023/05/07 10:34:45;;;;;;;;;3.00;3.00;;;;;19.13;100.00;72626.25;5001534;28;45918;-84
2023/05/07 10:37:11;;;;;;;;;3.67;3.00;;;;;19.16;100.00;73115.66;5001137;28;45738;-84
2023/05/07 10:39:37;;;;;;;;;3.00;3.00;;;;;18.52;100.00;72259.03;5012965;28;45536;-84
2023/05/07 10:42:11;;;;;;;;;4.00;4.00;;;;;18.85;100.00;72650.84;5010365;28;46110;-84
2023/05/07 10:44:37;;;;;;;;;3.00;2.00;;;;;19.02;100.00;72708.44;5008217;28;47022;-83
2023/05/07 10:47:09;;;;;;;;;3.00;3.00;;;;;19.27;100.00;72353.31;5005963;28;46087;-85
2023/05/07 10:49:43;;;;;;;;;2.75;2.75;;;;;19.34;100.00;73142.47;5009394;28;45478;-84
2023/05/07 10:52:50;;;;;;;;;3.00;3.00;;;;;19.46;100.00;73941.59;5007413;28;45401;-86
2023/05/07 10:55:15;;;;;;;;;3.00;3.00;;;;;19.81;100.00;73104.31;5012182;28;46537;-85
2023/05/07 10:57:40;;;;;;;;;3.00;3.00;;;;;19.80;100.00;72748.47;5005805;28;45462;-84
2023/05/07 11:00:26;;;;;;;;;1.75;1.75;;;;;20.96;100.00;71525.31;5010018;28;45434;-84
2023/05/07 11:03:00;;;;;;;;;3.00;3.00;;;;;21.54;100.00;71660.16;4985444;28;45753;-84
2023/05/07 11:05:30;;;;;;;;;1.75;1.75;;;;;22.02;100.00;70068.59;5026959;28;48275;-85
2023/05/07 11:07:57;;;;;;;;;2.50;2.50;;;;;22.27;100.00;68505.84;5007063;28;46535;-84
2023/05/07 11:10:22;;;;;;;;;3.00;3.00;;;;;22.62;100.00;67392.59;5010446;28;45436;-84
2023/05/07 11:12:49;;;;;;;;;2.25;2.25;;;;;22.30;100.00;66333.94;5013355;28;45499;-84
2023/05/07 11:15:15;;;;;;;;;2.75;2.75;;;;;22.49;100.00;66580.75;5015554;28;46155;-84
2023/05/07 11:17:59;;;;;;;;;2.00;2.00;;;;;22.08;100.00;66826.13;5014420;28;45513;-82
2023/05/07 11:20:56;;;;;;;;;2.00;2.00;;;;;22.76;100.00;69001.94;4998462;28;45528;-84
2023/05/07 11:23:33;;;;;;;;;3.25;3.25;;;;;22.59;100.00;73181.25;5017454;28;45419;-86
2023/05/07 11:26:11;;;;;;;;;5.00;3.50;;;;;22.44;100.00;76516.91;5010935;28;45569;-85
2023/05/07 11:28:39;;;;;;;;;3.25;2.25;;;;;21.24;100.00;79525.41;5010986;28;45635;-85
2023/05/07 11:31:04;;;;;;;;;3.25;3.00;;;;;20.58;100.00;84017.66;5009594;28;45575;-86
2023/05/07 11:33:30;;;;;;;;;4.00;3.00;;;;;21.79;100.00;86159.88;4989911;28;45642;-86
2023/05/07 11:36:03;;;;;;;;;3.25;3.00;;;;;20.43;100.00;87384.69;5014975;28;46165;-96
2023/05/07 11:38:30;;;;;;;;;3.00;3.00;;;;;21.43;100.00;89596.09;4995075;28;45950;-87
2023/05/07 11:40:58;;;;;;;;;3.00;3.00;;;;;20.78;100.00;89712.34;5015108;28;45404;-86
2023/05/07 11:43:24;;;;;;;;;4.00;3.25;;;;;20.22;100.00;91024.47;5010219;28;45604;-87
2023/05/07 11:45:50;;;;;;;;;3.00;3.00;;;;;21.14;100.00;90170.72;4998952;28;47232;-87
2023/05/07 11:48:16;;;;;;;;;4.50;4.50;;;;;20.37;100.00;90126.19;5013127;28;45841;-89
2023/05/07 11:50:53;;;;;;;;;6.50;5.00;;;;;20.36;100.00;90143.53;5007480;28;45737;-87
2023/05/07 11:53:19;;;;;;;;;4.00;4.00;;;;;21.31;100.00;89515.53;5011198;28;45638;-84
2023/05/07 11:55:45;;;;;;;;;5.00;5.00;;;;;21.31;100.00;89193.81;5010094;28;45506;-84
2023/05/07 11:58:12;;;;;;;;;6.50;6.00;;;;;21.33;100.00;89347.47;5014547;28;45385;-84
2023/05/07 12:00:38;;;;;;;;;4.00;4.00;;;;;21.36;100.00;88824.88;5011157;28;45670;-84
2023/05/07 12:03:06;;;;;;;;;5.00;5.00;;;;;21.39;100.00;89164.69;5005003;28;45584;-84
2023/05/07 12:05:32;;;;;;;;;3.75;3.00;;;;;21.41;100.00;88479.06;5014660;28;46505;-86
2023/05/07 12:07:57;;;;;;;;;3.00;3.00;;;;;21.08;100.00;88438.78;5013681;28;45420;-86
2023/05/07 12:10:24;;;;;;;;;3.75;3.75;;;;;20.38;100.00;88204.94;5011063;28;45640;-87
2023/05/07 12:12:50;;;;;;;;;5.00;5.00;;;;;21.46;100.00;87989.16;5005606;28;45544;-86
2023/05/07 12:15:17;;;;;;;;;4.00;4.00;;;;;21.05;100.00;88184.94;5004819;28;45549;-87
2023/05/07 12:17:43;;;;;;;;;4.50;4.50;;;;;21.04;100.00;88548.91;5010081;28;45447;-87
2023/05/07 12:20:09;;;;;;;;;5.00;5.00;;;;;20.93;100.00;88526.09;5010645;28;45544;-87
2023/05/07 12:22:36;;;;;;;;;6.00;4.00;;;;;20.62;100.00;89067.41;5015543;28;45524;-87
2023/05/07 12:25:02;;;;;;;;;2.00;2.00;;;;;21.25;100.00;88936.72;5009231;28;46446;-84
2023/05/07 12:27:27;;;;;;;;;5.00;3.50;;;;;21.20;100.00;88777.78;5014188;28;45364;-84
2023/05/07 12:29:53;;;;;;;;;3.00;3.00;;;;;21.16;100.00;88179.13;5006995;28;45963;-85
2023/05/07 12:32:20;;;;;;;;;4.75;4.75;;;;;20.85;100.00;88576.88;5009468;28;45586;-85
2023/05/07 12:34:46;;;;;;;;;9.00;7.33;;;;;21.05;100.00;87844.53;5012811;28;47223;-84
2023/05/07 12:37:12;;;;;;;;;4.00;4.00;;;;;20.91;100.00;88172.69;5014418;28;47010;-85
2023/05/07 12:39:43;;;;;;;;;4.00;3.75;;;;;20.77;100.00;87587.97;5011335;28;45662;-85
2023/05/07 12:42:15;;;;;;;;;6.50;4.00;;;;;20.91;100.00;86629.88;5006152;28;45392;-85
2023/05/07 12:44:45;;;;;;;;;6.00;5.00;;;;;20.65;100.00;86665.75;5006890;28;46137;-84
2023/05/07 12:47:10;;;;;;;;;4.75;4.00;;;;;20.82;100.00;86337.28;5012227;28;45490;-84
2023/05/07 12:49:38;;;;;;;;;5.00;5.00;;;;;20.74;100.00;85237.84;5014020;28;45443;-85
2023/05/07 12:52:04;;;;;;;;;3.50;3.50;;;;;20.72;100.00;85572.25;5010815;28;45589;-85
2023/05/07 12:54:37;;;;;;;;;3.50;3.50;;;;;20.63;100.00;84629.03;5005314;28;46185;-81
2023/05/07 12:57:05;;;;;;;;;4.25;4.25;;;;;20.58;100.00;83755.31;5013598;28;45530;-80
2023/05/07 12:59:35;;;;;;;;;7.25;5.00;;;;;20.52;100.00;82824.63;5015511;28;45457;-80
2023/05/07 13:02:01;;;;;;;;;5.75;4.00;;;;;20.47;100.00;82138.28;5012831;28;45572;-82
2023/05/07 13:04:26;;;;;;;;;8.00;8.00;;;;;20.32;100.00;81786.47;5005538;28;47354;-80
2023/05/07 13:06:52;;;;;;;;;6.00;6.00;;;;;20.39;100.00;80756.31;5004957;28;45420;-80
2023/05/07 13:09:17;;;;;;;;;5.75;5.00;;;;;20.34;100.00;80410.69;4993474;28;45669;-79
2023/05/07 13:11:42;;;;;;;;;6.00;4.00;;;;;20.23;100.00;79572.25;5006657;28;45819;-80
2023/05/07 13:14:08;;;;;;;;;3.00;2.75;;;;;20.21;100.00;78061.41;5012982;28;54573;-80
2023/05/07 13:16:33;;;;;;;;;3.50;2.00;;;;;20.09;100.00;76733.09;5009902;28;45841;-80
2023/05/07 13:18:58;;;;;;;;;3.00;3.00;;;;;19.95;100.00;76203.72;5013412;28;45423;-80
2023/05/07 13:21:24;;;;;;;;;2.00;2.00;;;;;20.07;100.00;74868.91;5014470;28;45382;-83
2023/05/07 13:23:49;;;;;;;;;3.00;3.00;;;;;19.99;100.00;70391.84;5014616;28;46438;-79
2023/05/07 13:26:15;;;;;;;;;3.75;2.00;;;;;19.93;100.00;69686.50;5010426;28;45619;-81
2023/05/07 13:28:40;;;;;;;;;2.25;2.25;;;;;19.40;100.00;69048.00;5010278;28;46168;-82
2023/05/07 13:31:05;;;;;;;;;3.50;3.50;;;;;19.86;100.00;68306.72;5013796;28;46174;-81
2023/05/07 13:33:31;;;;;;;;;3.00;3.00;;;;;19.50;100.00;67355.88;5005998;28;47263;-82
2023/05/07 13:35:56;;;;;;;;;2.00;2.00;;;;;19.67;100.00;65533.09;5014649;28;45356;-83
2023/05/07 13:38:22;;;;;;;;;1.25;1.25;;;;;19.77;100.00;65396.97;5015087;28;45527;-85
2023/05/07 13:40:47;;;;;;;;;3.75;3.00;;;;;19.34;100.00;64792.31;5014310;28;45703;-84
2023/05/07 13:43:13;;;;;;;;;3.00;3.00;;;;;19.73;100.00;65173.19;5012155;28;46745;-79
2023/05/07 13:45:38;;;;;;;;;2.00;2.00;;;;;19.54;100.00;65449.81;5010289;28;45370;-85
2023/05/07 13:48:04;;;;;;;;;4.50;4.50;;;;;19.69;100.00;65056.13;5011903;28;46008;-81
2023/05/07 13:50:29;;;;;;;;;3.00;3.00;;;;;19.44;100.00;64853.84;5012578;28;45317;-84
2023/05/07 13:52:55;;;;;;;;;4.25;4.25;;;;;19.61;100.00;63989.19;5011961;28;45608;-86
2023/05/07 13:55:22;;;;;;;;;1.00;1.00;;;;;19.66;100.00;63599.75;5011302;28;47178;-83
2023/05/07 13:57:55;;;;;;;;;4.25;3.00;;;;;19.67;100.00;63547.28;5011304;28;45557;-82
2023/05/07 14:00:21;;;;;;;;;4.00;4.00;;;;;19.38;100.00;63449.53;5013874;28;45436;-83
2023/05/07 14:02:46;;;;;;;;;4.25;3.25;;;;;19.44;100.00;63598.09;5007073;28;46759;-86
2023/05/07 14:05:13;;;;;;;;;5.00;5.00;;;;;19.34;100.00;63509.97;5007754;28;45941;-84
2023/05/07 14:07:38;;;;;;;;;8.00;6.00;;;;;19.32;100.00;63799.13;5003994;28;46036;-87
2023/05/07 14:10:04;;;;;;;;;7.00;5.75;;;;;19.52;100.00;64346.25;5010731;28;45757;-86
2023/05/07 14:12:30;;;;;;;;;6.00;4.00;;;;;19.84;100.00;64614.00;4993142;28;46329;-88
2023/05/07 14:14:56;;;;;;;;;5.25;5.25;;;;;19.98;100.00;65047.41;5010293;28;46106;-86
2023/05/07 14:17:23;;;;;;;;;6.00;6.00;;;;;20.10;100.00;66375.34;5019573;28;45668;-85
2023/05/07 14:19:48;;;;;;;;;6.75;5.00;;;;;19.96;100.00;67620.22;5009717;28;45686;-85
2023/05/07 14:22:15;;;;;;;;;5.25;5.00;;;;;19.94;100.00;68648.91;5013296;28;46111;-83
2023/05/07 14:24:40;;;;;;;;;8.00;6.33;;;;;20.33;100.00;70133.03;5013275;28;45492;-82
2023/05/07 14:27:06;;;;;;;;;5.00;5.00;;;;;20.42;100.00;71452.66;5013407;28;45384;-81
2023/05/07 14:29:31;;;;;;;;;6.25;6.00;;;;;20.61;100.00;72718.38;5008769;28;45844;-83
2023/05/07 14:31:56;;;;;;;;;6.75;5.75;;;;;20.69;100.00;74549.16;5011345;28;45524;-83
2023/05/07 14:34:22;;;;;;;;;2.75;2.75;;;;;20.68;100.00;75101.63;5003170;28;45586;-82
2023/05/07 14:36:47;;;;;;;;;5.00;5.00;;;;;20.73;100.00;75636.28;5007213;28;45761;-86
2023/05/07 14:39:12;;;;;;;;;5.25;4.75;;;;;20.81;100.00;75967.09;4992179;28;45515;-86
2023/05/07 14:41:38;;;;;;;;;3.00;3.00;;;;;20.56;100.00;76992.31;5008988;28;45499;-85
2023/05/07 14:44:03;;;;;;;;;5.33;5.00;;;;;20.73;100.00;77628.16;5012425;28;50305;-86
2023/05/07 14:46:29;;;;;;;;;3.75;3.75;;;;;20.72;100.00;77734.53;5011539;28;45447;-85
2023/05/07 14:48:54;;;;;;;;;3.75;3.75;;;;;20.65;100.00;78588.38;5015328;28;45526;-85
2023/05/07 14:51:20;;;;;;;;;7.00;4.00;;;;;20.59;100.00;78569.53;5015984;28;54259;-84
2023/05/07 14:53:46;;;;;;;;;4.00;4.00;;;;;20.41;100.00;79164.56;5013913;28;45568;-84
2023/05/07 14:56:11;;;;;;;;;7.00;2.75;;;;;20.32;100.00;79109.94;5014256;28;45403;-84
2023/05/07 14:58:37;;;;;;;;;4.00;4.00;;;;;20.20;100.00;78778.69;4999000;28;45500;-84
2023/05/07 15:01:03;;;;;;;;;3.25;3.25;;;;;20.14;100.00;78316.44;5015242;28;46103;-84
2023/05/07 15:03:29;;;;;;;;;2.75;2.75;;;;;19.90;100.00;77647.34;5002101;28;45503;-85
2023/05/07 15:05:54;;;;;;;;;3.25;3.25;;;;;19.86;100.00;77241.28;5009282;28;45407;-84
2023/05/07 15:08:20;;;;;;;;;2.75;2.75;;;;;20.04;100.00;76390.31;5011741;28;45512;-84
2023/05/07 15:10:45;;;;;;;;;3.00;3.00;;;;;19.82;100.00;75813.69;5015861;28;46117;-89
2023/05/07 15:13:11;;;;;;;;;3.00;3.00;;;;;19.75;100.00;75442.34;5009285;28;45463;-88
2023/05/07 15:15:38;;;;;;;;;4.00;4.00;;;;;19.69;100.00;73612.34;5016424;28;45507;-91
2023/05/07 15:18:03;;;;;;;;;2.75;2.75;;;;;19.65;100.00;71990.69;5017588;28;45496;-90
2023/05/07 15:20:29;;;;;;;;;3.00;3.00;;;;;19.60;100.00;71367.69;5015694;28;47057;-90
2023/05/07 15:22:55;;;;;;;;;5.00;3.00;;;;;19.82;100.00;71265.25;5014578;28;46076;-91
2023/05/07 15:25:21;;;;;;;;;2.75;2.75;;;;;19.79;100.00;70356.84;5016491;28;45505;-91
2023/05/07 15:27:46;;;;;;;;;2.25;2.25;;;;;19.45;100.00;69632.13;5017037;28;45506;-89
2023/05/07 15:30:13;;;;;;;;;2.25;2.25;;;;;19.69;100.00;69253.13;5013438;28;46303;-87
2023/05/07 15:32:40;;;;;;;;;5.00;3.00;;;;;19.69;100.00;69708.66;5008035;28;45643;-94